Hauptseite
METAR-TAF:

METAR-TAF

Flughäfen :

Flughafen Conakry

Conakry, Guinea

Breite: 09-34N, Länge: 013-37W, Höhe: 26 m

Beobachtung

Neuester Wetterbericht von vor 20 Minuten, um 15:00 UTC
Wind 12 kt aus West
Temperatur 34°C
Luftfeuchtigkeit 36%
Luftdruck 1007 hPa
Sichtweite: 3000 m
trockener Dunst

METAR: GUCY 201500Z 27012KT 3000 HZ NSC 34/17 Q1007 NOSIG

Zeit: 15:20 (15:20 UTC)

Prognose

Neuester Wetterbericht von vor 4 Stunden und 20 Minuten, um 11:00 UTC
Gültige Prognose vom 20 um 12 UTC bis 21 um 18 UTC
Wind 8 kt aus West/Nordwest
Sichtweite: 5000 m
trockener Dunst
Wahrscheinlichkeit 30% :
Zeitweise
vom 21 um 02 UTC bis 21 um 06 UTC
Wind 2 kt aus unterschiedlichen Richtungen
Sichtweite: 2500 m
Leicht bewölkt in der Höhe von 1500 ft
feuchter Dunst

TAF: GUCY 201100Z 2012/2118 30008KT 5000 HZ NSC PROB30 TEMPO 2102/2106 VRB02KT 2500 BR FEW015

Wetterbeobachtungen und Prognosen von mehr als 4000 Flughäfen (METAR und TAF Bericht).

Die verfügbaren Stationen werden durch gelbe und rote Markierungen auf der Karte dargestellt.

Führen Sie die Maus auf sie, um den Namen der Station zu sehen.

Darauf klicken, um die Beobachtung von Wetterbeobachtungen und Prognosen zu sehen.

Um die Karte zu ändern : klicken Sie auf den grünen Tasten mit einem schwarzen Kreuz Zum Vergrößern, auf den grünen Button mit einem Gedankenstrich zu verkleinern, oder auf die grünen Pfeile für benachbarte Karten.


METAR-TAF: